Time;durP1;ratioP1;P1;durP2;ratioP2;P2;SDS_P1;SDS_P2;PMS_P1;PMS_P2;Temp;Humidity;BMP_temperature;BMP_pressure;BME280_temperature;BME280_humidity;BME280_pressure;Samples;Min_cycle;Max_cycle;Signal;HPM_P1;HPM_P2
2023/05/14 00:02:25;;;;;;;;;;;;;;;8.36;69.97;101176.95;102581;302;93981;-57
2023/05/14 00:05:07;;;;;;;25.40;14.60;;;;;;;8.36;69.96;101172.39;102642;278;97754;-54
2023/05/14 00:07:48;;;;;;;18.60;12.40;;;;;;;8.34;70.18;101174.30;102617;278;120558;-54
2023/05/14 00:10:29;;;;;;;20.80;12.90;;;;;;;8.27;70.40;101170.80;102594;278;105205;-56
2023/05/14 00:13:13;;;;;;;16.70;11.60;;;;;;;8.25;70.53;101170.16;102580;278;114907;-55
2023/05/14 00:15:53;;;;;;;17.20;11.80;;;;;;;8.20;70.69;101169.38;102592;278;97467;-56
2023/05/14 00:18:37;;;;;;;17.30;11.30;;;;;;;8.18;70.58;101167.04;102606;278;96043;-57
2023/05/14 00:21:21;;;;;;;17.30;11.20;;;;;;;8.13;70.90;101170.22;102601;278;120882;-56
2023/05/14 00:23:59;;;;;;;;;;;;;;;8.14;70.92;101166.36;102678;278;103601;-57
2023/05/14 00:26:41;;;;;;;16.80;11.80;;;;;;;8.12;70.85;101162.48;102623;278;114675;-56
2023/05/14 00:29:20;;;;;;;16.40;11.40;;;;;;;8.12;70.85;101165.50;102555;278;93494;-53
2023/05/14 00:32:05;;;;;;;18.00;12.20;;;;;;;8.10;71.06;101161.31;102608;277;98045;-53
2023/05/14 00:34:52;;;;;;;18.20;10.40;;;;;;;8.05;71.16;101161.42;102503;278;120743;-54
2023/05/14 00:37:30;;;;;;;16.90;10.60;;;;;;;8.02;71.38;101162.31;102574;278;106363;-52
2023/05/14 00:40:17;;;;;;;18.20;10.40;;;;;;;8.01;71.32;101159.65;102509;278;114030;-53
2023/05/14 00:43:01;;;;;;;16.30;11.10;;;;;;;7.99;71.39;101159.00;102546;278;97015;-53
2023/05/14 00:45:43;;;;;;;15.20;10.50;;;;;;;8.02;71.40;101156.56;102518;278;97372;-56
2023/05/14 00:48:27;;;;;;;13.80;10.20;;;;;;;8.02;71.50;101159.96;102579;278;120670;-54
2023/05/14 00:51:05;;;;;;;15.40;11.40;;;;;;;7.93;71.84;101158.90;102505;277;105896;-53
2023/05/14 00:53:43;;;;;;;16.60;10.40;;;;;;;7.89;71.92;101158.63;102509;278;113715;-54
2023/05/14 00:56:26;;;;;;;17.50;11.00;;;;;;;7.87;71.88;101158.97;102494;278;95981;-53
2023/05/14 00:59:10;;;;;;;15.60;10.40;;;;;;;7.82;71.98;101161.64;102495;278;97398;-56
2023/05/14 01:01:51;;;;;;;16.00;10.30;;;;;;;7.78;72.10;101164.30;102484;278;120731;-56
2023/05/14 01:04:34;;;;;;;21.60;11.00;;;;;;;7.76;72.01;101166.53;102571;278;105222;-55
2023/05/14 01:07:31;;;;;;;13.90;10.50;;;;;;;7.74;72.02;101165.43;102513;278;115216;-56
2023/05/14 01:10:21;;;;;;;15.70;10.80;;;;;;;7.67;72.33;101163.42;102563;278;95082;-56
2023/05/14 01:13:04;;;;;;;18.20;11.60;;;;;;;7.62;72.43;101162.89;102575;278;98292;-56
2023/05/14 01:15:45;;;;;;;15.50;11.00;;;;;;;7.57;72.50;101163.00;102625;278;120082;-57
2023/05/14 01:18:28;;;;;;;16.30;11.60;;;;;;;7.52;72.78;101160.48;102563;278;104512;-55
2023/05/14 01:21:18;;;;;;;18.20;11.30;;;;;;;7.47;72.68;101158.45;102577;278;113159;-56
2023/05/14 01:23:58;;;;;;;18.70;11.50;;;;;;;7.44;72.76;101160.77;102577;266;97285;-57
2023/05/14 01:26:35;;;;;;;15.10;10.80;;;;;;;7.44;72.73;101157.89;102564;278;96085;-55
2023/05/14 01:29:21;;;;;;;15.30;10.30;;;;;;;7.42;72.79;101150.73;102567;278;119875;-56
2023/05/14 01:32:06;;;;;;;17.30;11.50;;;;;;;7.40;72.85;101147.86;102565;278;105361;-56
2023/05/14 01:34:47;;;;;;;15.50;11.30;;;;;;;7.39;72.82;101147.10;102578;278;114544;-56
2023/05/14 01:37:24;;;;;;;17.20;11.90;;;;;;;7.36;73.03;101144.48;102561;278;94297;-56
2023/05/14 01:39:59;;;;;;;18.80;13.00;;;;;;;7.34;73.02;101143.68;102580;278;98094;-52
2023/05/14 01:42:41;;;;;;;16.80;12.20;;;;;;;7.30;73.19;101141.71;102572;278;121041;-53
2023/05/14 01:45:20;;;;;;;19.30;12.80;;;;;;;7.23;73.09;101144.76;102561;277;104152;-55
2023/05/14 01:48:01;;;;;;;15.90;12.90;;;;;;;7.14;73.40;101140.83;102553;278;114742;-53
2023/05/14 01:50:43;;;;;;;19.60;13.70;;;;;;;7.06;73.71;101140.86;102539;278;97188;-52
2023/05/14 01:53:20;;;;;;;20.70;15.00;;;;;;;7.06;73.71;101144.11;102586;277;97583;-56
2023/05/14 01:55:59;;;;;;;17.90;13.70;;;;;;;7.08;73.77;101139.90;102581;278;121316;-64
2023/05/14 01:58:37;;;;;;;21.00;14.90;;;;;;;7.09;73.84;101137.13;102524;278;105082;-54
2023/05/14 02:01:15;;;;;;;19.90;14.00;;;;;;;7.08;73.84;101134.03;102627;277;113487;-54
2023/05/14 02:03:51;;;;;;;21.40;14.30;;;;;;;7.03;73.97;101134.54;102591;277;95008;-51
2023/05/14 02:06:27;;;;;;;17.50;13.70;;;;;;;7.00;73.86;101139.64;102591;277;96770;-53
2023/05/14 02:09:11;;;;;;;23.60;14.20;;;;;;;6.92;73.94;101138.30;102624;277;120059;-53
2023/05/14 02:11:56;;;;;;;18.70;14.70;;;;;;;6.85;74.07;101141.69;102565;277;105236;-53
2023/05/14 02:14:40;;;;;;;17.80;12.90;;;;;;;6.81;74.20;101145.60;102566;277;114827;-55
2023/05/14 02:17:21;;;;;;;20.00;13.80;;;;;;;6.79;74.37;101139.50;102544;277;94874;-56
2023/05/14 02:20:01;;;;;;;20.30;13.90;;;;;;;6.85;74.28;101138.82;102546;277;96079;-52
2023/05/14 02:22:44;;;;;;;18.10;14.00;;;;;;;6.86;74.42;101139.79;102513;277;120256;-53
2023/05/14 02:25:30;;;;;;;18.60;13.20;;;;;;;6.84;74.43;101142.65;102583;277;105241;-56
2023/05/14 02:28:17;;;;;;;17.90;14.20;;;;;;;6.86;74.63;101137.47;102545;277;113133;-53
2023/05/14 02:31:03;;;;;;;20.40;14.40;;;;;;;6.87;74.57;101132.65;102527;278;93253;-53
2023/05/14 02:33:43;;;;;;;19.60;14.90;;;;;;;6.85;74.52;101131.28;102556;277;97871;-55
2023/05/14 02:36:25;;;;;;;20.30;14.80;;;;;;;6.79;74.47;101129.75;102558;277;119548;-55
2023/05/14 02:39:05;;;;;;;17.20;14.10;;;;;;;6.77;74.51;101135.30;102540;277;105600;-53
2023/05/14 02:41:46;;;;;;;19.80;14.00;;;;;;;6.71;74.63;101133.38;102542;277;114981;-53
2023/05/14 02:44:20;;;;;;;22.00;14.70;;;;;;;6.68;74.77;101130.98;102540;277;96050;-54
2023/05/14 02:46:53;;;;;;;;;;;;;;;6.72;74.83;101129.92;102598;277;97748;-56
2023/05/14 02:49:32;;;;;;;21.50;14.80;;;;;;;6.69;74.95;101130.89;102578;277;121241;-56
2023/05/14 02:52:13;;;;;;;17.00;13.60;;;;;;;6.65;75.04;101125.39;102610;277;105454;-56
2023/05/14 02:54:52;;;;;;;17.60;13.10;;;;;;;6.59;75.29;101128.27;102554;277;115056;-52
2023/05/14 02:57:38;;;;;;;19.50;15.00;;;;;;;6.61;75.36;101125.60;102599;277;94532;-53
2023/05/14 03:00:15;;;;;;;19.10;14.70;;;;;;;6.61;75.41;101125.75;102567;277;96234;-52
2023/05/14 03:02:59;;;;;;;19.70;15.60;;;;;;;6.64;75.43;101123.20;102571;277;119977;-53
2023/05/14 03:05:40;;;;;;;23.80;16.50;;;;;;;6.69;75.26;101122.78;102533;277;105126;-54
2023/05/14 03:08:23;;;;;;;20.30;15.20;;;;;;;6.69;75.42;101122.83;102461;277;113804;-56
2023/05/14 03:11:13;;;;;;;21.00;15.90;;;;;;;6.70;75.48;101125.10;102487;277;97149;-56
2023/05/14 03:13:57;;;;;;;19.80;14.60;;;;;;;6.70;75.55;101122.37;102559;277;98042;-53
2023/05/14 03:16:40;;;;;;;23.70;14.60;;;;;;;6.71;75.61;101124.58;102496;277;120979;-52
2023/05/14 03:19:16;;;;;;;19.10;14.40;;;;;;;6.73;75.61;101127.05;102511;277;105689;-56
2023/05/14 03:21:58;;;;;;;19.80;15.00;;;;;;;6.79;75.67;101129.02;102553;277;114675;-56
2023/05/14 03:24:40;;;;;;;22.50;14.50;;;;;;;6.86;75.60;101132.98;102508;277;93207;-56
2023/05/14 03:27:19;;;;;;;18.10;15.10;;;;;;;6.88;75.80;101137.40;102501;278;97749;-56
2023/05/14 03:29:56;;;;;;;20.60;15.50;;;;;;;6.97;75.82;101130.41;102566;278;121150;-53
2023/05/14 03:32:41;;;;;;;20.90;15.40;;;;;;;7.15;75.73;101127.27;102542;278;105140;-53
2023/05/14 03:35:18;;;;;;;20.30;15.20;;;;;;;7.32;75.70;101125.42;102613;278;113960;-53
2023/05/14 03:37:58;;;;;;;20.50;15.30;;;;;;;7.60;75.80;101125.48;102606;278;97266;-54
2023/05/14 03:40:35;;;;;;;17.50;14.90;;;;;;;8.19;75.52;101123.60;102688;278;98077;-56
2023/05/14 03:43:20;;;;;;;18.10;13.90;;;;;;;9.44;75.06;101119.84;102672;278;118588;-53
2023/05/14 03:46:03;;;;;;;20.00;15.40;;;;;;;11.14;73.42;101114.99;102657;278;106699;-53
2023/05/14 03:48:43;;;;;;;19.80;14.90;;;;;;;12.50;71.48;101109.74;102683;278;114575;-53
2023/05/14 03:51:25;;;;;;;16.80;15.10;;;;;;;13.54;69.84;101113.89;102076;278;749333;-53
2023/05/14 03:54:03;;;;;;;19.70;16.10;;;;;;;14.42;68.72;101108.52;102531;278;97536;-57
2023/05/14 03:56:44;;;;;;;19.40;15.10;;;;;;;15.24;67.94;101107.13;102631;278;120382;-56
2023/05/14 03:59:29;;;;;;;17.50;15.10;;;;;;;16.25;66.37;101096.98;102603;278;104363;-56
2023/05/14 04:02:13;;;;;;;18.10;15.70;;;;;;;17.16;64.15;101093.10;102600;278;114012;-56
2023/05/14 04:04:52;;;;;;;19.80;16.00;;;;;;;17.59;62.76;101091.09;102633;278;94128;-56
2023/05/14 04:07:29;;;;;;;19.00;16.60;;;;;;;17.85;61.87;101090.36;102621;278;96019;-55
2023/05/14 04:10:10;;;;;;;19.60;16.80;;;;;;;17.11;61.07;101091.27;102657;278;120333;-57
2023/05/14 04:12:50;;;;;;;22.10;17.70;;;;;;;15.90;60.79;101090.15;102617;278;105956;-56
2023/05/14 04:15:27;;;;;;;20.40;17.40;;;;;;;14.87;61.24;101093.16;102588;278;113622;-52
2023/05/14 04:18:04;;;;;;;19.90;17.20;;;;;;;14.37;60.86;101091.34;102656;278;94419;-54
2023/05/14 04:20:52;;;;;;;21.60;17.10;;;;;;;13.91;60.85;101097.35;102629;278;97490;-53
2023/05/14 04:23:30;;;;;;;21.70;17.30;;;;;;;13.68;61.05;101098.44;102625;278;120860;-53
2023/05/14 04:26:06;;;;;;;20.10;15.50;;;;;;;13.69;60.69;101095.45;102644;278;104043;-53
2023/05/14 04:28:48;;;;;;;23.90;16.50;;;;;;;13.64;60.51;101094.73;102674;266;113598;-56
2023/05/14 04:31:30;;;;;;;20.70;15.10;;;;;;;13.54;60.65;101098.79;102627;278;94116;-54
2023/05/14 04:34:23;;;;;;;20.90;16.10;;;;;;;13.48;60.73;101101.08;102615;278;96506;-56
2023/05/14 04:37:02;;;;;;;20.70;16.10;;;;;;;13.37;60.88;101098.42;102638;286;120534;-56
2023/05/14 04:39:41;;;;;;;20.40;16.40;;;;;;;13.38;60.97;101095.80;102686;278;104598;-56
2023/05/14 04:42:20;;;;;;;22.40;15.20;;;;;;;13.46;60.89;101093.98;102660;278;113293;-57
2023/05/14 04:44:55;;;;;;;18.70;14.80;;;;;;;14.10;60.90;101091.88;102621;278;94162;-57
2023/05/14 04:47:31;;;;;;;15.80;13.90;;;;;;;15.48;59.92;101085.65;102628;278;95691;-57
2023/05/14 04:50:08;;;;;;;17.30;14.20;;;;;;;17.42;58.64;101086.02;102581;278;120581;-53
2023/05/14 04:52:54;;;;;;;16.80;15.10;;;;;;;19.59;56.25;101078.14;102571;278;104126;-54
2023/05/14 04:55:31;;;;;;;;;;;;;;;21.39;54.09;101077.80;102625;277;114290;-54
2023/05/14 04:58:07;;;;;;;15.20;13.60;;;;;;;22.72;51.91;101070.09;102666;278;94367;-54
2023/05/14 05:00:54;;;;;;;14.50;12.90;;;;;;;23.73;49.75;101071.66;102614;278;96459;-54
2023/05/14 05:03:33;;;;;;;15.90;14.20;;;;;;;24.65;47.53;101071.54;102634;266;120996;-54
2023/05/14 05:06:14;;;;;;;17.30;12.20;;;;;;;25.26;46.39;101072.58;102619;278;103989;-54
2023/05/14 05:08:51;;;;;;;16.30;13.10;;;;;;;25.86;44.54;101073.80;102574;278;114671;-54
2023/05/14 05:11:36;;;;;;;15.80;13.40;;;;;;;26.16;43.08;101074.91;102625;278;92316;-54
2023/05/14 05:14:16;;;;;;;14.40;13.00;;;;;;;26.89;41.39;101068.24;102644;278;97359;-57
2023/05/14 05:16:54;;;;;;;14.90;13.20;;;;;;;27.46;39.45;101066.30;102629;278;120828;-57
2023/05/14 05:19:48;;;;;;;14.00;12.60;;;;;;;27.71;38.80;101063.23;102614;278;105657;-58
2023/05/14 05:22:31;;;;;;;15.60;13.90;;;;;;;28.17;37.74;101060.98;102656;278;113225;-57
2023/05/14 05:25:11;;;;;;;14.60;12.30;;;;;;;28.70;36.72;101059.42;102641;278;94555;-53
2023/05/14 05:27:48;;;;;;;14.60;12.70;;;;;;;29.02;35.27;101060.77;102621;278;96500;-54
2023/05/14 05:30:29;;;;;;;14.50;12.40;;;;;;;29.15;34.60;101060.33;102568;278;119746;-55
2023/05/14 05:33:09;;;;;;;15.50;12.20;;;;;;;29.49;34.21;101055.31;102573;278;104689;-55
2023/05/14 05:35:52;;;;;;;13.10;11.70;;;;;;;29.70;33.63;101060.91;102569;277;114875;-54
2023/05/14 05:38:39;;;;;;;13.70;11.40;;;;;;;30.00;32.83;101060.05;102561;277;94432;-55
2023/05/14 05:41:18;;;;;;;13.20;11.50;;;;;;;30.33;32.08;101060.35;102589;278;97436;-56
2023/05/14 05:44:01;;;;;;;12.70;11.30;;;;;;;30.62;31.69;101059.70;102563;278;120263;-55
2023/05/14 05:46:39;;;;;;;13.20;10.80;;;;;;;31.00;30.55;101055.37;102583;278;105207;-55
2023/05/14 05:49:17;;;;;;;11.40;10.20;;;;;;;30.92;29.73;101053.22;102614;277;114789;-57
2023/05/14 05:51:59;;;;;;;11.40;10.20;;;;;;;31.03;30.08;101053.42;102578;278;94170;-58
2023/05/14 05:54:40;;;;;;;12.30;11.00;;;;;;;31.38;29.55;101053.64;102565;277;97791;-58
2023/05/14 05:57:26;;;;;;;11.40;10.20;;;;;;;31.25;29.29;101054.31;102578;278;120640;-56
2023/05/14 06:00:14;;;;;;;10.50;9.60;;;;;;;31.69;29.09;101051.62;102621;278;105771;-57
2023/05/14 06:02:56;;;;;;;13.30;9.80;;;;;;;32.21;28.59;101055.39;102531;278;114075;-57
2023/05/14 06:05:33;;;;;;;;;;;;;;;32.34;27.74;101054.11;102556;277;92958;-55
2023/05/14 06:08:10;;;;;;;10.20;8.90;;;;;;;32.21;26.89;101048.64;102587;277;98315;-54
2023/05/14 06:10:58;;;;;;;9.90;8.90;;;;;;;32.63;26.60;101046.88;102607;277;121171;-54
2023/05/14 06:13:45;;;;;;;9.50;8.30;;;;;;;32.82;25.92;101049.19;102632;278;104817;-55
2023/05/14 06:16:30;;;;;;;8.70;7.80;;;;;;;32.91;25.43;101047.11;102621;278;113725;-54
2023/05/14 06:19:14;;;;;;;11.00;8.00;;;;;;;33.40;24.81;101044.88;102576;278;92535;-55
2023/05/14 06:21:52;;;;;;;9.50;8.20;;;;;;;33.40;24.51;101043.65;102622;277;98413;-54
2023/05/14 06:24:33;;;;;;;9.30;7.60;;;;;;;33.61;24.65;101043.56;102538;266;120326;-57
2023/05/14 06:27:10;;;;;;;9.10;7.30;;;;;;;33.19;24.29;101045.48;102577;277;103112;-57
2023/05/14 06:29:50;;;;;;;8.50;7.60;;;;;;;33.63;24.31;101045.35;102539;278;112903;-54
2023/05/14 06:32:30;;;;;;;10.30;7.10;;;;;;;34.18;23.68;101046.00;102567;278;93932;-55
2023/05/14 06:35:08;;;;;;;8.90;7.20;;;;;;;34.44;23.52;101049.87;102540;277;97942;-55
2023/05/14 06:37:51;;;;;;;8.40;7.00;;;;;;;34.54;23.49;101047.70;102517;277;119189;-54
2023/05/14 06:40:32;;;;;;;7.70;6.10;;;;;;;35.00;23.25;101047.15;102547;277;105775;-58
2023/05/14 06:43:11;;;;;;;9.80;6.90;;;;;;;35.28;22.86;101039.48;102515;278;114453;-54
2023/05/14 06:45:52;;;;;;;8.50;6.30;;;;;;;35.62;22.41;101038.73;102480;277;95280;-55
2023/05/14 06:48:32;;;;;;;8.80;6.40;;;;;;;35.83;22.18;101038.11;102583;277;97765;-58
2023/05/14 06:51:16;;;;;;;9.50;6.40;;;;;;;35.63;21.49;101038.36;102556;277;120059;-57
2023/05/14 06:54:03;;;;;;;7.10;5.60;;;;;;;35.52;20.36;101036.14;102561;277;105026;-58
2023/05/14 06:56:41;;;;;;;8.50;5.80;;;;;;;35.51;21.14;101035.14;102524;278;114868;-58
2023/05/14 06:59:19;;;;;;;10.40;6.60;;;;;;;35.45;20.44;101037.30;102570;278;94930;-54
2023/05/14 07:02:03;;;;;;;7.00;5.80;;;;;;;35.20;20.42;101034.61;102586;277;98111;-54
2023/05/14 07:04:40;;;;;;;8.00;6.00;;;;;;;35.34;20.39;101031.33;102584;277;120550;-54
2023/05/14 07:07:22;;;;;;;9.30;5.60;;;;;;;35.55;20.58;101028.58;102612;277;104056;-53
2023/05/14 07:10:05;;;;;;;7.50;5.90;;;;;;;35.70;19.90;101028.84;102547;278;114603;-58
2023/05/14 07:12:47;;;;;;;6.40;5.00;;;;;;;35.66;19.57;101028.46;102509;277;93883;-61
2023/05/14 07:15:28;;;;;;;7.50;5.00;;;;;;;35.65;19.10;101024.05;102547;266;97042;-60
2023/05/14 07:18:16;;;;;;;8.90;5.00;;;;;;;35.53;19.04;101027.77;102576;277;121092;-60
2023/05/14 07:20:56;;;;;;;6.50;5.00;;;;;;;35.36;18.91;101018.74;102574;278;105758;-60
2023/05/14 07:23:47;;;;;;;7.60;4.80;;;;;;;35.21;19.04;101024.39;102557;278;114629;-61
2023/05/14 07:26:25;;;;;;;6.20;4.40;;;;;;;35.42;19.18;101024.52;102535;277;93727;-62
2023/05/14 07:29:00;;;;;;;6.50;4.40;;;;;;;35.29;18.74;101026.36;102594;278;97780;-62
2023/05/14 07:31:38;;;;;;;7.30;4.10;;;;;;;35.41;18.58;101023.19;102583;278;120107;-63
2023/05/14 07:34:16;;;;;;;5.50;3.50;;;;;;;35.00;17.49;101024.05;102585;278;107379;-59
2023/05/14 07:36:57;;;;;;;4.60;3.80;;;;;;;34.39;18.38;101027.30;102573;275;113673;-60
2023/05/14 07:39:46;;;;;;;5.20;4.00;;;;;;;34.67;18.56;101024.79;102660;278;94240;-60
2023/05/14 07:42:29;;;;;;;5.70;4.00;;;;;;;34.45;18.30;101026.84;102635;278;97722;-60
2023/05/14 07:45:10;;;;;;;5.60;4.00;;;;;;;34.39;18.72;101019.34;102623;278;119809;-62
2023/05/14 07:47:54;;;;;;;7.80;3.60;;;;;;;34.15;18.31;101021.08;102532;278;107998;-61
2023/05/14 07:50:39;;;;;;;6.60;3.50;;;;;;;33.99;18.38;101012.30;102618;278;114273;-62
2023/05/14 07:53:15;;;;;;;4.70;3.50;;;;;;;34.29;18.62;101012.74;102682;278;93453;-60
2023/05/14 07:55:56;;;;;;;6.80;4.00;;;;;;;34.44;18.65;101007.63;102674;278;98124;-61
2023/05/14 07:58:40;;;;;;;5.30;3.80;;;;;;;34.34;18.75;101012.39;102630;278;121675;-62
2023/05/14 08:01:19;;;;;;;4.50;3.40;;;;;;;34.42;18.35;101008.27;102643;278;105742;-63
2023/05/14 08:04:02;;;;;;;7.10;4.20;;;;;;;34.30;18.78;101008.13;102597;278;114822;-62
2023/05/14 08:06:44;;;;;;;5.20;3.20;;;;;;;34.28;18.41;101002.19;102601;278;94046;-62
2023/05/14 08:09:32;;;;;;;7.40;3.50;;;;;;;34.26;18.29;101002.04;102688;278;97736;-64
2023/05/14 08:12:11;;;;;;;4.20;3.20;;;;;;;34.16;18.26;100994.52;102649;278;121674;-62
2023/05/14 08:14:49;;;;;;;7.00;3.00;;;;;;;33.90;18.45;100993.08;102631;278;105835;-57
2023/05/14 08:17:36;;;;;;;3.90;2.80;;;;;;;34.01;18.96;100990.65;102609;278;113404;-58
2023/05/14 08:20:15;;;;;;;4.20;3.20;;;;;;;34.30;18.99;100983.14;102646;278;94850;-55
2023/05/14 08:22:53;;;;;;;4.30;3.40;;;;;;;34.64;18.90;100982.27;102614;278;97202;-56
2023/05/14 08:25:38;;;;;;;4.00;3.60;;;;;;;34.43;18.59;100983.67;102650;278;120659;-55
2023/05/14 08:28:15;;;;;;;5.10;3.40;;;;;;;34.47;18.75;100976.55;102634;278;105454;-55
2023/05/14 08:30:56;;;;;;;4.70;3.60;;;;;;;34.28;18.58;100973.12;102613;278;114402;-61
2023/05/14 08:33:38;;;;;;;5.00;3.70;;;;;;;34.23;18.54;100973.13;102631;278;94798;-63
2023/05/14 08:36:13;;;;;;;4.90;3.10;;;;;;;33.98;18.41;100975.77;102630;278;96523;-64
2023/05/14 08:38:50;;;;;;;6.40;3.50;;;;;;;34.10;18.47;100973.25;102601;278;120936;-62
2023/05/14 08:41:38;;;;;;;6.50;3.40;;;;;;;34.18;18.50;100972.52;102621;278;104128;-61
2023/05/14 08:44:19;;;;;;;6.00;3.30;;;;;;;33.88;18.11;100966.30;102687;278;115999;-62
2023/05/14 08:47:04;;;;;;;3.90;3.20;;;;;;;34.00;18.53;100969.54;102729;278;94557;-62
2023/05/14 08:49:46;;;;;;;5.60;3.50;;;;;;;33.28;18.07;100963.11;102678;278;98521;-62
2023/05/14 08:52:29;;;;;;;5.80;3.90;;;;;;;32.48;18.16;100969.63;102647;277;120231;-62
2023/05/14 08:55:10;;;;;;;4.10;3.20;;;;;;;32.35;18.51;100958.32;102598;278;105903;-64
2023/05/14 08:57:48;;;;;;;5.00;2.80;;;;;;;32.46;18.92;100962.03;102605;278;114791;-62
2023/05/14 09:00:25;;;;;;;4.90;3.40;;;;;;;32.26;19.07;100957.11;102577;278;94595;-64
2023/05/14 09:03:04;;;;;;;5.70;3.30;;;;;;;32.19;19.52;100953.23;102630;278;98221;-64
2023/05/14 09:05:45;;;;;;;4.70;3.00;;;;;;;31.87;19.62;100951.14;102667;278;119709;-63
2023/05/14 09:08:26;;;;;;;6.80;3.50;;;;;;;31.56;19.84;100959.73;102508;279;105998;-62
2023/05/14 09:11:09;;;;;;;3.80;3.10;;;;;;;31.02;20.27;100954.08;102569;278;113714;-57
2023/05/14 09:13:50;;;;;;;4.50;3.20;;;;;;;30.63;20.62;100949.60;102576;277;93842;-55
2023/05/14 09:16:35;;;;;;;4.00;3.00;;;;;;;30.13;21.06;100950.52;102551;278;96620;-53
2023/05/14 09:19:17;;;;;;;5.30;3.70;;;;;;;29.39;21.11;100943.77;102568;278;119814;-54
2023/05/14 09:22:00;;;;;;;4.80;2.60;;;;;;;28.94;21.67;100945.27;102609;278;105544;-55
2023/05/14 09:24:43;;;;;;;5.60;2.70;;;;;;;28.84;22.23;100941.94;102625;278;114616;-61
2023/05/14 09:27:26;;;;;;;4.70;2.80;;;;;;;28.42;22.00;100942.59;102501;278;93069;-57
2023/05/14 09:30:22;;;;;;;4.50;2.80;;;;;;;28.01;22.30;100947.36;102604;278;97728;-55
2023/05/14 09:32:56;;;;;;;3.20;2.50;;;;;;;27.70;22.73;100942.39;102559;278;119864;-55
2023/05/14 09:35:36;;;;;;;5.10;2.70;;;;;;;27.64;23.44;100946.05;102627;278;105807;-54
2023/05/14 09:38:15;;;;;;;4.80;3.00;;;;;;;27.62;22.71;100946.17;102636;277;114489;-54
2023/05/14 09:40:56;;;;;;;4.00;2.90;;;;;;;27.26;22.67;100941.50;102573;270;93636;-55
2023/05/14 09:43:37;;;;;;;3.70;2.50;;;;;;;27.14;22.73;100939.80;102615;278;98655;-54
2023/05/14 09:46:28;;;;;;;5.20;2.80;;;;;;;26.92;23.26;100934.58;102562;278;121033;-54
2023/05/14 09:49:13;;;;;;;3.80;2.80;;;;;;;26.73;23.42;100937.73;102564;278;104348;-54
2023/05/14 09:52:02;;;;;;;3.40;2.70;;;;;;;26.79;23.54;100929.23;102508;278;115128;-53
2023/05/14 09:54:41;;;;;;;4.30;2.70;;;;;;;26.92;24.11;100924.37;102553;278;93309;-53
2023/05/14 09:57:20;;;;;;;5.80;2.40;;;;;;;27.16;23.88;100926.86;102499;278;98718;-54
2023/05/14 09:59:57;;;;;;;4.10;2.30;;;;;;;27.16;23.56;100929.85;102467;278;121444;-57
2023/05/14 10:02:43;;;;;;;3.60;2.50;;;;;;;27.01;23.39;100928.04;102516;278;105409;-57
2023/05/14 10:05:26;;;;;;;3.40;2.30;;;;;;;26.52;23.15;100918.02;102492;278;115012;-57
2023/05/14 10:08:16;;;;;;;4.60;2.60;;;;;;;26.55;23.56;100920.29;102531;278;94563;-57
2023/05/14 10:10:55;;;;;;;3.70;2.50;;;;;;;26.62;23.76;100912.44;102540;278;98455;-57
2023/05/14 10:13:40;;;;;;;3.40;2.40;;;;;;;26.81;23.37;100910.56;102543;278;120220;-53
2023/05/14 10:16:18;;;;;;;;;;;;;;;26.84;23.27;100910.71;102578;277;106701;-53
2023/05/14 10:19:04;;;;;;;3.80;2.30;;;;;;;26.66;23.41;100915.14;102581;277;114382;-53
2023/05/14 10:21:45;;;;;;;4.70;2.40;;;;;;;26.62;23.80;100906.94;102537;277;93547;-54
2023/05/14 10:24:21;;;;;;;5.30;2.40;;;;;;;26.52;23.34;100901.55;102581;278;96433;-54
2023/05/14 10:27:05;;;;;;;4.10;2.60;;;;;;;26.32;23.74;100903.84;102581;278;120523;-54
2023/05/14 10:29:54;;;;;;;4.70;2.10;;;;;;;26.33;23.78;100899.79;102607;278;105959;-54
2023/05/14 10:32:32;;;;;;;4.30;2.40;;;;;;;26.28;23.89;100894.59;102562;278;113742;-55
2023/05/14 10:35:24;;;;;;;3.30;2.60;;;;;;;26.26;23.81;100899.54;102556;278;94682;-57
2023/05/14 10:38:10;;;;;;;3.90;2.10;;;;;;;26.19;23.83;100897.93;102568;278;95275;-62
2023/05/14 10:41:02;;;;;;;4.20;2.20;;;;;;;26.30;23.86;100892.88;102590;277;120199;-64
2023/05/14 10:43:44;;;;;;;3.30;2.50;;;;;;;26.01;23.74;100894.45;102616;277;105267;-64
2023/05/14 10:46:23;;;;;;;4.60;2.30;;;;;;;25.79;23.84;100886.66;102584;277;114639;-63
2023/05/14 10:49:02;;;;;;;4.40;2.30;;;;;;;25.72;24.06;100889.66;102577;278;93266;-62
2023/05/14 10:51:45;;;;;;;4.70;2.60;;;;;;;25.61;23.51;100888.72;102603;277;95420;-63
2023/05/14 10:54:31;;;;;;;4.70;2.20;;;;;;;25.21;23.81;100887.15;102533;277;121632;-63
2023/05/14 10:57:27;;;;;;;3.20;2.60;;;;;;;24.80;23.83;100884.16;102570;278;105582;-64
2023/05/14 11:00:09;;;;;;;5.20;2.70;;;;;;;24.59;24.57;100883.23;102529;278;114735;-63
2023/05/14 11:02:45;;;;;;;4.00;2.20;;;;;;;24.76;24.48;100883.46;102534;278;92621;-62
2023/05/14 11:05:26;;;;;;;5.60;2.80;;;;;;;24.87;24.57;100887.29;102584;277;97368;-63
2023/05/14 11:08:06;;;;;;;5.00;2.50;;;;;;;24.84;24.60;100875.57;102540;278;121504;-63
2023/05/14 11:10:54;;;;;;;2.60;2.30;;;;;;;24.97;24.79;100863.20;102562;278;104341;-64
2023/05/14 11:13:39;;;;;;;4.20;2.50;;;;;;;24.87;24.72;100858.16;102623;277;114074;-63
2023/05/14 11:16:17;;;;;;;6.80;2.30;;;;;;;24.70;24.85;100853.82;102540;277;94146;-62
2023/05/14 11:19:09;;;;;;;5.30;2.40;;;;;;;24.59;25.06;100852.23;102597;266;96949;-60
2023/05/14 11:21:46;;;;;;;6.50;2.80;;;;;;;24.56;25.11;100838.20;102578;277;119431;-61
2023/05/14 11:30:53;;;;;;;7.90;2.40;;;;;;;24.74;25.58;100829.58;102406;279;94077;-56
2023/05/14 11:33:44;;;;;;;3.10;2.30;;;;;;;24.73;25.27;100819.79;102401;279;96342;-57
2023/05/14 11:36:24;;;;;;;4.00;2.40;;;;;;;24.71;25.45;100814.64;102384;279;119875;-59
2023/05/14 11:39:07;;;;;;;4.10;2.20;;;;;;;24.74;25.29;100809.56;102424;279;105289;-54
2023/05/14 11:41:47;;;;;;;3.70;2.10;;;;;;;24.62;25.46;100812.35;102427;279;113149;-54
2023/05/14 11:44:24;;;;;;;4.30;2.00;;;;;;;24.44;25.10;100807.48;102461;279;94678;-55
2023/05/14 11:47:10;;;;;;;5.30;2.00;;;;;;;24.38;25.05;100795.75;102439;279;98563;-55
2023/05/14 11:49:46;;;;;;;4.00;2.30;;;;;;;24.46;25.36;100779.30;102674;277;119442;-55
2023/05/14 11:52:26;;;;;;;3.40;2.30;;;;;;;24.46;25.22;100775.22;102112;277;644565;-55
2023/05/14 11:55:05;;;;;;;5.40;2.30;;;;;;;24.29;25.32;100773.73;102556;278;115142;-57
2023/05/14 11:57:44;;;;;;;5.40;2.20;;;;;;;24.18;25.42;100774.35;102512;278;93920;-57
2023/05/14 12:00:25;;;;;;;4.90;2.30;;;;;;;24.09;25.65;100772.86;102583;278;96751;-57
2023/05/14 12:03:12;;;;;;;5.10;2.80;;;;;;;23.97;25.75;100765.73;102641;278;120596;-56
2023/05/14 12:06:06;;;;;;;3.70;2.10;;;;;;;23.98;25.46;100763.61;102605;278;105705;-55
2023/05/14 12:08:43;;;;;;;4.50;2.00;;;;;;;23.95;25.10;100752.63;102627;278;113869;-54
2023/05/14 12:11:28;;;;;;;5.30;2.30;;;;;;;23.85;25.15;100752.85;102563;278;92656;-54
2023/05/14 12:14:16;;;;;;;4.20;2.10;;;;;;;23.83;25.47;100748.20;102580;278;98358;-54
2023/05/14 12:17:03;;;;;;;3.30;2.20;;;;;;;23.93;25.57;100749.75;102550;278;118667;-54
2023/05/14 12:19:46;;;;;;;2.90;2.10;;;;;;;23.92;25.52;100743.27;102549;278;104400;-57
2023/05/14 12:22:26;;;;;;;3.70;2.10;;;;;;;23.96;25.56;100740.32;102571;278;114004;-55
2023/05/14 12:25:11;;;;;;;2.40;1.90;;;;;;;23.96;25.29;100733.91;102424;278;96042;-53
2023/05/14 12:27:51;;;;;;;2.60;1.90;;;;;;;24.03;25.59;100743.05;102683;278;96496;-54
2023/05/14 12:30:28;;;;;;;4.10;1.80;;;;;;;23.99;25.39;100736.53;102656;278;119233;-57